リヤド の空港の天気 - METARとTAF

キング・ハーリド国際空港(リヤド) ( OERK / RUH ) - サウジアラビア リヤド
飛行場実況気象(Metar)
観測時間10/22 18:00 AST (10/22 15:00 UTC)
風向・風速北 3m/s
視程10km以上
天気現象
なし
気温28℃
湿度17%
気圧1017hPa
METAROERK 221500Z 36005KT CAVOK 28/01 Q1017 NOSIG
過去の天気等 Google飛行場航空写真 Wunderground天気予報

過去48時間のMETAR

飛行場予報(TAF)
発表時間: 10/22 14:00 AST (10/22 11:00 UTC)
予報対象時間: 22日15時 AST ~ 23日21時 AST
風向・風速北 8m/s
視程7000m
なし
22日21時 AST ~ 22日23時 AST に徐々に
風向・風速西北西 3m/s
TAF OERK 221100Z 2212/2318 36015KT 7000 NSC
BECMG 2218/2220 30006KT